sensor_id;sensor_type;location;lat;lon;timestamp;P1;durP1;ratioP1;P2;durP2;ratioP2
20415;SDS011;10367;52.202;5.996;2022-11-14T00:00:26;49.10;;;22.27;;
20415;SDS011;10367;52.202;5.996;2022-11-14T00:02:58;65.47;;;27.60;;
20415;SDS011;10367;52.202;5.996;2022-11-14T00:05:28;42.70;;;19.70;;
20415;SDS011;10367;52.202;5.996;2022-11-14T00:07:56;66.77;;;27.83;;
20415;SDS011;10367;52.202;5.996;2022-11-14T00:10:25;65.80;;;28.63;;
20415;SDS011;10367;52.202;5.996;2022-11-14T00:12:54;49.90;;;22.73;;
20415;SDS011;10367;52.202;5.996;2022-11-14T00:15:22;51.50;;;23.23;;
20415;SDS011;10367;52.202;5.996;2022-11-14T00:17:52;59.53;;;25.70;;
20415;SDS011;10367;52.202;5.996;2022-11-14T00:20:21;67.70;;;25.43;;
20415;SDS011;10367;52.202;5.996;2022-11-14T00:22:50;48.17;;;22.80;;
20415;SDS011;10367;52.202;5.996;2022-11-14T00:25:19;61.90;;;27.20;;
20415;SDS011;10367;52.202;5.996;2022-11-14T00:27:48;50.93;;;21.77;;
20415;SDS011;10367;52.202;5.996;2022-11-14T00:30:16;62.20;;;26.37;;
20415;SDS011;10367;52.202;5.996;2022-11-14T00:32:46;67.83;;;28.13;;
20415;SDS011;10367;52.202;5.996;2022-11-14T00:35:16;65.83;;;26.67;;
20415;SDS011;10367;52.202;5.996;2022-11-14T00:37:46;66.20;;;27.00;;
20415;SDS011;10367;52.202;5.996;2022-11-14T00:40:15;49.10;;;20.27;;
20415;SDS011;10367;52.202;5.996;2022-11-14T00:42:44;64.73;;;25.50;;
20415;SDS011;10367;52.202;5.996;2022-11-14T00:45:13;60.83;;;24.73;;
20415;SDS011;10367;52.202;5.996;2022-11-14T00:47:42;61.73;;;23.97;;
20415;SDS011;10367;52.202;5.996;2022-11-14T00:50:11;56.40;;;24.27;;
20415;SDS011;10367;52.202;5.996;2022-11-14T00:52:41;62.60;;;24.33;;
20415;SDS011;10367;52.202;5.996;2022-11-14T00:55:09;45.17;;;19.93;;
20415;SDS011;10367;52.202;5.996;2022-11-14T00:57:38;65.97;;;25.47;;
20415;SDS011;10367;52.202;5.996;2022-11-14T01:00:08;40.30;;;18.13;;
20415;SDS011;10367;52.202;5.996;2022-11-14T01:02:39;61.20;;;25.67;;
20415;SDS011;10367;52.202;5.996;2022-11-14T01:05:08;61.60;;;26.50;;
20415;SDS011;10367;52.202;5.996;2022-11-14T01:07:37;60.57;;;23.73;;
20415;SDS011;10367;52.202;5.996;2022-11-14T01:10:08;64.47;;;25.67;;
20415;SDS011;10367;52.202;5.996;2022-11-14T01:12:37;45.13;;;20.57;;
20415;SDS011;10367;52.202;5.996;2022-11-14T01:15:06;65.63;;;26.03;;
20415;SDS011;10367;52.202;5.996;2022-11-14T01:17:35;60.80;;;24.53;;
20415;SDS011;10367;52.202;5.996;2022-11-14T01:20:04;59.37;;;25.00;;
20415;SDS011;10367;52.202;5.996;2022-11-14T01:22:33;63.67;;;25.37;;
20415;SDS011;10367;52.202;5.996;2022-11-14T01:25:02;73.93;;;26.90;;
20415;SDS011;10367;52.202;5.996;2022-11-14T01:27:33;63.27;;;23.80;;
20415;SDS011;10367;52.202;5.996;2022-11-14T01:30:01;55.13;;;23.13;;
20415;SDS011;10367;52.202;5.996;2022-11-14T01:32:30;56.43;;;23.30;;
20415;SDS011;10367;52.202;5.996;2022-11-14T01:34:59;67.73;;;26.47;;
20415;SDS011;10367;52.202;5.996;2022-11-14T01:37:28;72.63;;;27.73;;
20415;SDS011;10367;52.202;5.996;2022-11-14T01:39:57;62.53;;;24.30;;
20415;SDS011;10367;52.202;5.996;2022-11-14T01:42:25;57.83;;;21.67;;
20415;SDS011;10367;52.202;5.996;2022-11-14T01:44:55;46.80;;;21.87;;
20415;SDS011;10367;52.202;5.996;2022-11-14T01:47:25;67.30;;;25.37;;
20415;SDS011;10367;52.202;5.996;2022-11-14T01:49:57;54.70;;;22.30;;
20415;SDS011;10367;52.202;5.996;2022-11-14T01:52:29;58.67;;;24.17;;
20415;SDS011;10367;52.202;5.996;2022-11-14T01:55:02;51.43;;;20.57;;
20415;SDS011;10367;52.202;5.996;2022-11-14T01:57:34;60.20;;;24.03;;
20415;SDS011;10367;52.202;5.996;2022-11-14T02:00:08;60.63;;;24.43;;
20415;SDS011;10367;52.202;5.996;2022-11-14T02:02:38;46.17;;;19.23;;
20415;SDS011;10367;52.202;5.996;2022-11-14T02:05:08;74.37;;;26.77;;
20415;SDS011;10367;52.202;5.996;2022-11-14T02:07:39;60.23;;;24.40;;
20415;SDS011;10367;52.202;5.996;2022-11-14T02:10:09;64.57;;;26.33;;
20415;SDS011;10367;52.202;5.996;2022-11-14T02:12:43;44.70;;;19.93;;
20415;SDS011;10367;52.202;5.996;2022-11-14T02:15:15;69.87;;;24.60;;
20415;SDS011;10367;52.202;5.996;2022-11-14T02:17:44;51.83;;;21.83;;
20415;SDS011;10367;52.202;5.996;2022-11-14T02:20:15;66.33;;;26.80;;
20415;SDS011;10367;52.202;5.996;2022-11-14T02:22:47;38.63;;;16.87;;
20415;SDS011;10367;52.202;5.996;2022-11-14T02:25:16;49.80;;;20.60;;
20415;SDS011;10367;52.202;5.996;2022-11-14T02:27:46;47.83;;;21.10;;
20415;SDS011;10367;52.202;5.996;2022-11-14T02:30:15;39.60;;;18.47;;
20415;SDS011;10367;52.202;5.996;2022-11-14T02:32:46;55.50;;;22.70;;
20415;SDS011;10367;52.202;5.996;2022-11-14T02:35:36;60.57;;;24.03;;
20415;SDS011;10367;52.202;5.996;2022-11-14T02:38:05;65.23;;;25.77;;
20415;SDS011;10367;52.202;5.996;2022-11-14T02:40:33;57.27;;;24.43;;
20415;SDS011;10367;52.202;5.996;2022-11-14T02:43:02;60.83;;;23.20;;
20415;SDS011;10367;52.202;5.996;2022-11-14T02:45:31;55.20;;;23.13;;
20415;SDS011;10367;52.202;5.996;2022-11-14T02:48:00;48.27;;;21.00;;
20415;SDS011;10367;52.202;5.996;2022-11-14T02:50:29;75.20;;;23.97;;
20415;SDS011;10367;52.202;5.996;2022-11-14T02:52:59;58.83;;;23.27;;
20415;SDS011;10367;52.202;5.996;2022-11-14T02:55:28;63.67;;;24.10;;
20415;SDS011;10367;52.202;5.996;2022-11-14T02:57:56;65.93;;;24.00;;
20415;SDS011;10367;52.202;5.996;2022-11-14T03:00:25;64.97;;;23.07;;
20415;SDS011;10367;52.202;5.996;2022-11-14T03:02:54;61.43;;;24.37;;
20415;SDS011;10367;52.202;5.996;2022-11-14T03:05:23;56.13;;;23.60;;
20415;SDS011;10367;52.202;5.996;2022-11-14T03:07:52;65.37;;;24.53;;
20415;SDS011;10367;52.202;5.996;2022-11-14T03:10:23;54.93;;;24.10;;
20415;SDS011;10367;52.202;5.996;2022-11-14T03:12:52;73.60;;;25.07;;
20415;SDS011;10367;52.202;5.996;2022-11-14T03:15:21;71.60;;;26.43;;
20415;SDS011;10367;52.202;5.996;2022-11-14T03:17:50;39.53;;;16.40;;
20415;SDS011;10367;52.202;5.996;2022-11-14T03:20:19;29.27;;;14.53;;
20415;SDS011;10367;52.202;5.996;2022-11-14T03:22:48;49.63;;;20.73;;
20415;SDS011;10367;52.202;5.996;2022-11-14T03:25:16;56.73;;;22.37;;
20415;SDS011;10367;52.202;5.996;2022-11-14T03:27:47;51.50;;;21.80;;
20415;SDS011;10367;52.202;5.996;2022-11-14T03:30:16;62.40;;;24.20;;
20415;SDS011;10367;52.202;5.996;2022-11-14T03:32:45;58.97;;;24.00;;
20415;SDS011;10367;52.202;5.996;2022-11-14T03:35:14;70.37;;;25.50;;
20415;SDS011;10367;52.202;5.996;2022-11-14T03:37:43;60.87;;;23.70;;
20415;SDS011;10367;52.202;5.996;2022-11-14T03:40:12;57.93;;;20.10;;
20415;SDS011;10367;52.202;5.996;2022-11-14T03:42:41;85.60;;;22.77;;
20415;SDS011;10367;52.202;5.996;2022-11-14T03:45:11;56.60;;;21.80;;
20415;SDS011;10367;52.202;5.996;2022-11-14T03:47:39;51.53;;;20.83;;
20415;SDS011;10367;52.202;5.996;2022-11-14T03:50:08;42.63;;;17.07;;
20415;SDS011;10367;52.202;5.996;2022-11-14T03:52:37;63.53;;;23.87;;
20415;SDS011;10367;52.202;5.996;2022-11-14T03:55:06;66.50;;;23.33;;
20415;SDS011;10367;52.202;5.996;2022-11-14T03:57:35;66.80;;;20.83;;
20415;SDS011;10367;52.202;5.996;2022-11-14T04:00:04;87.43;;;24.33;;
20415;SDS011;10367;52.202;5.996;2022-11-14T04:02:35;77.73;;;23.00;;
20415;SDS011;10367;52.202;5.996;2022-11-14T04:05:04;260.27;;;27.57;;
20415;SDS011;10367;52.202;5.996;2022-11-14T04:07:33;138.77;;;24.27;;
20415;SDS011;10367;52.202;5.996;2022-11-14T04:10:03;218.27;;;24.17;;
20415;SDS011;10367;52.202;5.996;2022-11-14T04:12:32;237.47;;;25.47;;
20415;SDS011;10367;52.202;5.996;2022-11-14T04:15:01;94.37;;;16.30;;
20415;SDS011;10367;52.202;5.996;2022-11-14T04:17:30;304.13;;;29.20;;
20415;SDS011;10367;52.202;5.996;2022-11-14T04:20:07;137.63;;;21.27;;
20415;SDS011;10367;52.202;5.996;2022-11-14T04:22:36;159.33;;;22.43;;
20415;SDS011;10367;52.202;5.996;2022-11-14T04:25:06;125.37;;;17.93;;
20415;SDS011;10367;52.202;5.996;2022-11-14T04:27:36;294.53;;;25.40;;
20415;SDS011;10367;52.202;5.996;2022-11-14T04:30:05;112.60;;;18.23;;
20415;SDS011;10367;52.202;5.996;2022-11-14T04:32:34;191.67;;;21.57;;
20415;SDS011;10367;52.202;5.996;2022-11-14T04:35:03;197.97;;;22.57;;
20415;SDS011;10367;52.202;5.996;2022-11-14T04:37:34;244.67;;;23.10;;
20415;SDS011;10367;52.202;5.996;2022-11-14T04:40:05;133.47;;;20.07;;
20415;SDS011;10367;52.202;5.996;2022-11-14T04:42:35;107.73;;;21.67;;
20415;SDS011;10367;52.202;5.996;2022-11-14T04:45:04;245.40;;;23.70;;
20415;SDS011;10367;52.202;5.996;2022-11-14T04:47:34;284.07;;;24.13;;
20415;SDS011;10367;52.202;5.996;2022-11-14T04:50:03;361.27;;;27.13;;
20415;SDS011;10367;52.202;5.996;2022-11-14T04:52:32;333.43;;;25.90;;
20415;SDS011;10367;52.202;5.996;2022-11-14T04:55:03;92.83;;;18.53;;
20415;SDS011;10367;52.202;5.996;2022-11-14T04:57:32;105.40;;;18.63;;
20415;SDS011;10367;52.202;5.996;2022-11-14T05:00:01;158.20;;;21.10;;
20415;SDS011;10367;52.202;5.996;2022-11-14T05:02:32;100.60;;;17.97;;
20415;SDS011;10367;52.202;5.996;2022-11-14T05:05:00;54.30;;;15.50;;
20415;SDS011;10367;52.202;5.996;2022-11-14T05:07:29;156.77;;;20.67;;
20415;SDS011;10367;52.202;5.996;2022-11-14T05:09:59;97.33;;;16.60;;
20415;SDS011;10367;52.202;5.996;2022-11-14T05:12:28;135.47;;;19.07;;
20415;SDS011;10367;52.202;5.996;2022-11-14T05:14:56;83.73;;;16.93;;
20415;SDS011;10367;52.202;5.996;2022-11-14T05:17:25;85.20;;;17.53;;
20415;SDS011;10367;52.202;5.996;2022-11-14T05:19:54;260.33;;;22.30;;
20415;SDS011;10367;52.202;5.996;2022-11-14T05:22:23;38.03;;;12.50;;
20415;SDS011;10367;52.202;5.996;2022-11-14T05:24:52;79.17;;;14.97;;
20415;SDS011;10367;52.202;5.996;2022-11-14T05:27:22;70.17;;;15.90;;
20415;SDS011;10367;52.202;5.996;2022-11-14T05:29:50;111.17;;;18.00;;
20415;SDS011;10367;52.202;5.996;2022-11-14T05:32:21;75.37;;;15.57;;
20415;SDS011;10367;52.202;5.996;2022-11-14T05:34:49;107.23;;;18.67;;
20415;SDS011;10367;52.202;5.996;2022-11-14T05:37:18;108.63;;;22.17;;
20415;SDS011;10367;52.202;5.996;2022-11-14T05:39:47;56.70;;;17.37;;
20415;SDS011;10367;52.202;5.996;2022-11-14T05:42:16;91.90;;;18.57;;
20415;SDS011;10367;52.202;5.996;2022-11-14T05:44:46;80.83;;;17.53;;
20415;SDS011;10367;52.202;5.996;2022-11-14T05:47:16;154.30;;;19.77;;
20415;SDS011;10367;52.202;5.996;2022-11-14T05:49:45;162.93;;;19.47;;
20415;SDS011;10367;52.202;5.996;2022-11-14T05:52:13;96.77;;;17.87;;
20415;SDS011;10367;52.202;5.996;2022-11-14T05:54:42;113.27;;;19.00;;
20415;SDS011;10367;52.202;5.996;2022-11-14T05:57:11;88.10;;;19.33;;
20415;SDS011;10367;52.202;5.996;2022-11-14T05:59:40;43.00;;;13.57;;
20415;SDS011;10367;52.202;5.996;2022-11-14T06:02:10;48.83;;;13.13;;
20415;SDS011;10367;52.202;5.996;2022-11-14T06:04:39;117.00;;;17.50;;
20415;SDS011;10367;52.202;5.996;2022-11-14T06:07:07;48.00;;;14.23;;
20415;SDS011;10367;52.202;5.996;2022-11-14T06:09:36;44.63;;;14.27;;
20415;SDS011;10367;52.202;5.996;2022-11-14T06:12:05;76.63;;;18.13;;
20415;SDS011;10367;52.202;5.996;2022-11-14T06:14:34;73.00;;;17.17;;
20415;SDS011;10367;52.202;5.996;2022-11-14T06:17:02;79.07;;;15.87;;
20415;SDS011;10367;52.202;5.996;2022-11-14T06:19:33;67.53;;;16.17;;
20415;SDS011;10367;52.202;5.996;2022-11-14T06:22:02;103.23;;;19.23;;
20415;SDS011;10367;52.202;5.996;2022-11-14T06:24:30;94.97;;;18.57;;
20415;SDS011;10367;52.202;5.996;2022-11-14T06:26:59;83.43;;;15.23;;
20415;SDS011;10367;52.202;5.996;2022-11-14T06:29:28;76.43;;;16.63;;
20415;SDS011;10367;52.202;5.996;2022-11-14T06:32:01;89.97;;;17.97;;
20415;SDS011;10367;52.202;5.996;2022-11-14T06:34:30;92.53;;;21.80;;
20415;SDS011;10367;52.202;5.996;2022-11-14T06:37:00;64.80;;;19.07;;
20415;SDS011;10367;52.202;5.996;2022-11-14T06:39:28;79.97;;;17.43;;
20415;SDS011;10367;52.202;5.996;2022-11-14T06:41:58;78.70;;;18.50;;
20415;SDS011;10367;52.202;5.996;2022-11-14T06:44:26;83.80;;;18.03;;
20415;SDS011;10367;52.202;5.996;2022-11-14T06:46:57;100.93;;;18.13;;
20415;SDS011;10367;52.202;5.996;2022-11-14T06:49:25;95.87;;;19.47;;
20415;SDS011;10367;52.202;5.996;2022-11-14T06:51:54;99.80;;;18.47;;
20415;SDS011;10367;52.202;5.996;2022-11-14T06:54:24;71.67;;;15.57;;
20415;SDS011;10367;52.202;5.996;2022-11-14T06:56:53;50.90;;;16.90;;
20415;SDS011;10367;52.202;5.996;2022-11-14T06:59:22;42.10;;;15.60;;
20415;SDS011;10367;52.202;5.996;2022-11-14T07:01:50;56.53;;;16.93;;
20415;SDS011;10367;52.202;5.996;2022-11-14T07:04:19;68.53;;;17.53;;
20415;SDS011;10367;52.202;5.996;2022-11-14T07:06:48;72.23;;;16.70;;
20415;SDS011;10367;52.202;5.996;2022-11-14T07:09:17;69.17;;;21.13;;
20415;SDS011;10367;52.202;5.996;2022-11-14T07:11:48;52.23;;;16.50;;
20415;SDS011;10367;52.202;5.996;2022-11-14T07:14:16;112.00;;;19.27;;
20415;SDS011;10367;52.202;5.996;2022-11-14T07:16:45;105.53;;;18.10;;
20415;SDS011;10367;52.202;5.996;2022-11-14T07:19:14;75.93;;;19.60;;
20415;SDS011;10367;52.202;5.996;2022-11-14T07:21:43;87.33;;;14.97;;
20415;SDS011;10367;52.202;5.996;2022-11-14T07:24:13;109.07;;;18.70;;
20415;SDS011;10367;52.202;5.996;2022-11-14T07:26:41;161.17;;;17.70;;
20415;SDS011;10367;52.202;5.996;2022-11-14T07:29:12;89.87;;;17.13;;
20415;SDS011;10367;52.202;5.996;2022-11-14T07:31:41;87.70;;;13.60;;
20415;SDS011;10367;52.202;5.996;2022-11-14T07:34:09;78.57;;;18.37;;
20415;SDS011;10367;52.202;5.996;2022-11-14T07:36:39;116.27;;;18.70;;
20415;SDS011;10367;52.202;5.996;2022-11-14T07:39:08;155.37;;;19.13;;
20415;SDS011;10367;52.202;5.996;2022-11-14T07:41:36;63.63;;;16.93;;
20415;SDS011;10367;52.202;5.996;2022-11-14T07:44:06;102.27;;;19.53;;
20415;SDS011;10367;52.202;5.996;2022-11-14T07:46:37;101.57;;;18.93;;
20415;SDS011;10367;52.202;5.996;2022-11-14T07:49:05;90.67;;;17.37;;
20415;SDS011;10367;52.202;5.996;2022-11-14T07:51:34;106.67;;;19.63;;
20415;SDS011;10367;52.202;5.996;2022-11-14T07:54:03;61.93;;;17.37;;
20415;SDS011;10367;52.202;5.996;2022-11-14T07:56:32;73.60;;;18.70;;
20415;SDS011;10367;52.202;5.996;2022-11-14T07:59:01;82.93;;;20.13;;
20415;SDS011;10367;52.202;5.996;2022-11-14T08:01:30;57.37;;;18.77;;
20415;SDS011;10367;52.202;5.996;2022-11-14T08:04:00;91.23;;;18.47;;
20415;SDS011;10367;52.202;5.996;2022-11-14T08:06:29;72.27;;;18.83;;
20415;SDS011;10367;52.202;5.996;2022-11-14T08:08:58;119.07;;;18.03;;
20415;SDS011;10367;52.202;5.996;2022-11-14T08:11:26;41.93;;;17.67;;
20415;SDS011;10367;52.202;5.996;2022-11-14T08:14:14;60.77;;;17.00;;
20415;SDS011;10367;52.202;5.996;2022-11-14T08:16:45;104.27;;;18.43;;
20415;SDS011;10367;52.202;5.996;2022-11-14T08:19:16;55.53;;;21.23;;
20415;SDS011;10367;52.202;5.996;2022-11-14T08:21:46;60.80;;;18.47;;
20415;SDS011;10367;52.202;5.996;2022-11-14T08:24:15;59.57;;;17.33;;
20415;SDS011;10367;52.202;5.996;2022-11-14T08:26:45;59.37;;;17.17;;
20415;SDS011;10367;52.202;5.996;2022-11-14T08:29:14;39.53;;;18.43;;
20415;SDS011;10367;52.202;5.996;2022-11-14T08:31:44;45.67;;;17.37;;
20415;SDS011;10367;52.202;5.996;2022-11-14T08:34:13;53.57;;;17.83;;
20415;SDS011;10367;52.202;5.996;2022-11-14T08:36:44;43.03;;;17.83;;
20415;SDS011;10367;52.202;5.996;2022-11-14T08:39:15;33.07;;;15.80;;
20415;SDS011;10367;52.202;5.996;2022-11-14T08:41:45;32.97;;;15.83;;
20415;SDS011;10367;52.202;5.996;2022-11-14T08:44:14;34.30;;;15.60;;
20415;SDS011;10367;52.202;5.996;2022-11-14T08:46:43;29.83;;;15.80;;
20415;SDS011;10367;52.202;5.996;2022-11-14T08:49:12;40.10;;;18.50;;
20415;SDS011;10367;52.202;5.996;2022-11-14T08:51:41;39.10;;;17.83;;
20415;SDS011;10367;52.202;5.996;2022-11-14T08:54:12;39.77;;;18.13;;
20415;SDS011;10367;52.202;5.996;2022-11-14T08:56:42;42.17;;;17.80;;
20415;SDS011;10367;52.202;5.996;2022-11-14T08:59:11;42.67;;;18.97;;
20415;SDS011;10367;52.202;5.996;2022-11-14T09:01:40;31.03;;;14.60;;
20415;SDS011;10367;52.202;5.996;2022-11-14T09:04:08;38.40;;;17.07;;
20415;SDS011;10367;52.202;5.996;2022-11-14T09:06:37;29.13;;;14.93;;
20415;SDS011;10367;52.202;5.996;2022-11-14T09:09:07;39.63;;;17.83;;
20415;SDS011;10367;52.202;5.996;2022-11-14T09:11:36;44.20;;;19.87;;
20415;SDS011;10367;52.202;5.996;2022-11-14T09:14:05;37.50;;;17.77;;
20415;SDS011;10367;52.202;5.996;2022-11-14T09:16:34;45.87;;;20.80;;
20415;SDS011;10367;52.202;5.996;2022-11-14T09:19:03;41.50;;;19.37;;
20415;SDS011;10367;52.202;5.996;2022-11-14T09:21:32;47.27;;;20.73;;
20415;SDS011;10367;52.202;5.996;2022-11-14T09:24:01;47.23;;;19.23;;
20415;SDS011;10367;52.202;5.996;2022-11-14T09:26:31;47.50;;;21.00;;
20415;SDS011;10367;52.202;5.996;2022-11-14T09:28:59;40.50;;;18.13;;
20415;SDS011;10367;52.202;5.996;2022-11-14T09:31:28;46.53;;;20.50;;
20415;SDS011;10367;52.202;5.996;2022-11-14T09:33:57;44.73;;;19.93;;
20415;SDS011;10367;52.202;5.996;2022-11-14T09:36:26;51.27;;;22.77;;
20415;SDS011;10367;52.202;5.996;2022-11-14T09:38:54;38.73;;;18.23;;
20415;SDS011;10367;52.202;5.996;2022-11-14T09:41:24;45.90;;;20.77;;
20415;SDS011;10367;52.202;5.996;2022-11-14T09:44:08;52.63;;;20.70;;
20415;SDS011;10367;52.202;5.996;2022-11-14T09:46:56;37.17;;;18.10;;
20415;SDS011;10367;52.202;5.996;2022-11-14T09:49:29;29.53;;;14.83;;
20415;SDS011;10367;52.202;5.996;2022-11-14T09:52:04;34.20;;;17.30;;
20415;SDS011;10367;52.202;5.996;2022-11-14T09:54:43;42.10;;;18.87;;
20415;SDS011;10367;52.202;5.996;2022-11-14T09:57:18;51.90;;;22.37;;
20415;SDS011;10367;52.202;5.996;2022-11-14T09:59:49;34.97;;;17.70;;
20415;SDS011;10367;52.202;5.996;2022-11-14T10:02:29;45.60;;;19.90;;
20415;SDS011;10367;52.202;5.996;2022-11-14T10:05:14;35.27;;;17.23;;
20415;SDS011;10367;52.202;5.996;2022-11-14T10:08:02;48.03;;;20.63;;
20415;SDS011;10367;52.202;5.996;2022-11-14T10:10:49;35.53;;;17.80;;
20415;SDS011;10367;52.202;5.996;2022-11-14T10:13:25;35.87;;;18.67;;
20415;SDS011;10367;52.202;5.996;2022-11-14T10:16:09;37.97;;;17.93;;
20415;SDS011;10367;52.202;5.996;2022-11-14T10:18:47;37.83;;;18.50;;
20415;SDS011;10367;52.202;5.996;2022-11-14T10:21:39;103.80;;;28.70;;
20415;SDS011;10367;52.202;5.996;2022-11-14T10:24:23;114.27;;;28.00;;
20415;SDS011;10367;52.202;5.996;2022-11-14T10:27:09;42.77;;;18.73;;
20415;SDS011;10367;52.202;5.996;2022-11-14T10:29:50;43.10;;;19.60;;
20415;SDS011;10367;52.202;5.996;2022-11-14T10:32:39;33.53;;;18.63;;
20415;SDS011;10367;52.202;5.996;2022-11-14T10:35:22;38.37;;;18.67;;
20415;SDS011;10367;52.202;5.996;2022-11-14T10:38:02;50.27;;;19.50;;
20415;SDS011;10367;52.202;5.996;2022-11-14T10:40:38;38.10;;;18.90;;
20415;SDS011;10367;52.202;5.996;2022-11-14T10:43:15;33.37;;;18.27;;
20415;SDS011;10367;52.202;5.996;2022-11-14T10:45:49;34.13;;;17.73;;
20415;SDS011;10367;52.202;5.996;2022-11-14T10:48:28;38.80;;;19.53;;
20415;SDS011;10367;52.202;5.996;2022-11-14T10:51:00;34.60;;;19.10;;
20415;SDS011;10367;52.202;5.996;2022-11-14T10:53:42;31.53;;;17.73;;
20415;SDS011;10367;52.202;5.996;2022-11-14T10:56:18;35.80;;;20.13;;
20415;SDS011;10367;52.202;5.996;2022-11-14T10:58:50;25.57;;;16.37;;
20415;SDS011;10367;52.202;5.996;2022-11-14T11:01:30;30.53;;;18.37;;
20415;SDS011;10367;52.202;5.996;2022-11-14T11:04:12;28.90;;;16.77;;
20415;SDS011;10367;52.202;5.996;2022-11-14T11:06:46;28.63;;;17.87;;
20415;SDS011;10367;52.202;5.996;2022-11-14T11:09:17;30.50;;;17.30;;
20415;SDS011;10367;52.202;5.996;2022-11-14T11:12:13;29.40;;;16.10;;
20415;SDS011;10367;52.202;5.996;2022-11-14T11:14:45;28.20;;;16.27;;
20415;SDS011;10367;52.202;5.996;2022-11-14T11:17:17;30.37;;;17.20;;
20415;SDS011;10367;52.202;5.996;2022-11-14T11:19:58;26.37;;;18.07;;
20415;SDS011;10367;52.202;5.996;2022-11-14T11:23:00;30.17;;;17.50;;
20415;SDS011;10367;52.202;5.996;2022-11-14T11:25:30;37.90;;;21.50;;
20415;SDS011;10367;52.202;5.996;2022-11-14T11:28:04;35.23;;;21.10;;
20415;SDS011;10367;52.202;5.996;2022-11-14T11:30:34;29.57;;;19.47;;
20415;SDS011;10367;52.202;5.996;2022-11-14T11:33:16;26.30;;;18.73;;
20415;SDS011;10367;52.202;5.996;2022-11-14T11:35:53;32.20;;;18.80;;
20415;SDS011;10367;52.202;5.996;2022-11-14T11:38:24;31.43;;;18.50;;
20415;SDS011;10367;52.202;5.996;2022-11-14T11:40:59;29.40;;;19.17;;
20415;SDS011;10367;52.202;5.996;2022-11-14T11:43:53;29.40;;;18.17;;
20415;SDS011;10367;52.202;5.996;2022-11-14T11:46:28;34.47;;;20.33;;
20415;SDS011;10367;52.202;5.996;2022-11-14T11:49:01;27.43;;;17.67;;
20415;SDS011;10367;52.202;5.996;2022-11-14T11:51:39;28.47;;;19.03;;
20415;SDS011;10367;52.202;5.996;2022-11-14T11:54:12;24.53;;;16.93;;
20415;SDS011;10367;52.202;5.996;2022-11-14T11:56:46;31.30;;;19.83;;
20415;SDS011;10367;52.202;5.996;2022-11-14T11:59:27;29.87;;;18.53;;
20415;SDS011;10367;52.202;5.996;2022-11-14T12:02:00;30.43;;;18.50;;
20415;SDS011;10367;52.202;5.996;2022-11-14T12:04:39;26.73;;;18.60;;
20415;SDS011;10367;52.202;5.996;2022-11-14T12:07:10;28.53;;;19.50;;
20415;SDS011;10367;52.202;5.996;2022-11-14T12:09:42;27.47;;;19.87;;
20415;SDS011;10367;52.202;5.996;2022-11-14T12:12:33;32.33;;;19.37;;
20415;SDS011;10367;52.202;5.996;2022-11-14T12:15:16;27.73;;;17.67;;
20415;SDS011;10367;52.202;5.996;2022-11-14T12:18:01;30.13;;;18.07;;
20415;SDS011;10367;52.202;5.996;2022-11-14T12:21:04;25.83;;;17.80;;
20415;SDS011;10367;52.202;5.996;2022-11-14T12:23:57;33.70;;;20.07;;
20415;SDS011;10367;52.202;5.996;2022-11-14T12:26:40;31.07;;;19.07;;
20415;SDS011;10367;52.202;5.996;2022-11-14T12:29:34;32.67;;;19.47;;
20415;SDS011;10367;52.202;5.996;2022-11-14T12:32:16;31.67;;;19.57;;
20415;SDS011;10367;52.202;5.996;2022-11-14T12:34:54;36.50;;;21.40;;
20415;SDS011;10367;52.202;5.996;2022-11-14T12:37:27;39.70;;;22.30;;
20415;SDS011;10367;52.202;5.996;2022-11-14T12:40:02;29.50;;;18.93;;
20415;SDS011;10367;52.202;5.996;2022-11-14T12:42:33;38.30;;;22.97;;
20415;SDS011;10367;52.202;5.996;2022-11-14T12:45:03;27.37;;;19.83;;
20415;SDS011;10367;52.202;5.996;2022-11-14T12:50:43;33.73;;;20.97;;
20415;SDS011;10367;52.202;5.996;2022-11-14T12:56:15;31.07;;;18.63;;
20415;SDS011;10367;52.202;5.996;2022-11-14T13:05:16;28.43;;;18.50;;
20415;SDS011;10367;52.202;5.996;2022-11-14T13:07:58;32.27;;;20.77;;
20415;SDS011;10367;52.202;5.996;2022-11-14T13:10:37;38.67;;;24.50;;
20415;SDS011;10367;52.202;5.996;2022-11-14T13:13:09;33.77;;;20.47;;
20415;SDS011;10367;52.202;5.996;2022-11-14T13:15:57;30.73;;;19.60;;
20415;SDS011;10367;52.202;5.996;2022-11-14T13:18:54;32.50;;;20.63;;
20415;SDS011;10367;52.202;5.996;2022-11-14T13:27:45;34.43;;;21.37;;
20415;SDS011;10367;52.202;5.996;2022-11-14T13:33:39;36.17;;;23.23;;
20415;SDS011;10367;52.202;5.996;2022-11-14T13:36:09;26.50;;;18.13;;
20415;SDS011;10367;52.202;5.996;2022-11-14T13:38:55;36.80;;;21.97;;
20415;SDS011;10367;52.202;5.996;2022-11-14T13:41:56;35.70;;;20.93;;
20415;SDS011;10367;52.202;5.996;2022-11-14T13:47:44;34.37;;;21.30;;
20415;SDS011;10367;52.202;5.996;2022-11-14T13:50:46;26.67;;;17.00;;
20415;SDS011;10367;52.202;5.996;2022-11-14T13:53:19;36.57;;;19.57;;
20415;SDS011;10367;52.202;5.996;2022-11-14T13:55:55;30.90;;;20.00;;
20415;SDS011;10367;52.202;5.996;2022-11-14T13:58:32;32.60;;;19.80;;
20415;SDS011;10367;52.202;5.996;2022-11-14T14:01:21;29.70;;;18.00;;
20415;SDS011;10367;52.202;5.996;2022-11-14T14:04:21;32.97;;;20.03;;
20415;SDS011;10367;52.202;5.996;2022-11-14T14:07:04;29.40;;;18.67;;
20415;SDS011;10367;52.202;5.996;2022-11-14T14:09:39;29.93;;;19.30;;
20415;SDS011;10367;52.202;5.996;2022-11-14T14:12:20;25.63;;;17.97;;
20415;SDS011;10367;52.202;5.996;2022-11-14T14:15:03;26.87;;;17.93;;
20415;SDS011;10367;52.202;5.996;2022-11-14T14:17:41;35.93;;;19.73;;
20415;SDS011;10367;52.202;5.996;2022-11-14T14:20:20;25.00;;;18.27;;
20415;SDS011;10367;52.202;5.996;2022-11-14T14:22:59;29.43;;;19.97;;
20415;SDS011;10367;52.202;5.996;2022-11-14T14:25:40;25.17;;;17.63;;
20415;SDS011;10367;52.202;5.996;2022-11-14T14:28:18;29.77;;;17.33;;
20415;SDS011;10367;52.202;5.996;2022-11-14T14:31:00;29.87;;;18.43;;
20415;SDS011;10367;52.202;5.996;2022-11-14T14:33:38;28.70;;;18.73;;
20415;SDS011;10367;52.202;5.996;2022-11-14T14:36:20;25.57;;;17.17;;
20415;SDS011;10367;52.202;5.996;2022-11-14T14:39:05;24.80;;;17.27;;
20415;SDS011;10367;52.202;5.996;2022-11-14T14:41:42;29.50;;;17.63;;
20415;SDS011;10367;52.202;5.996;2022-11-14T14:44:16;25.30;;;17.23;;
20415;SDS011;10367;52.202;5.996;2022-11-14T14:46:49;21.40;;;15.70;;
20415;SDS011;10367;52.202;5.996;2022-11-14T14:49:19;25.33;;;16.50;;
20415;SDS011;10367;52.202;5.996;2022-11-14T14:51:53;26.87;;;16.70;;
20415;SDS011;10367;52.202;5.996;2022-11-14T14:54:25;31.03;;;18.77;;
20415;SDS011;10367;52.202;5.996;2022-11-14T14:56:56;27.83;;;16.73;;
20415;SDS011;10367;52.202;5.996;2022-11-14T14:59:27;33.17;;;19.10;;
20415;SDS011;10367;52.202;5.996;2022-11-14T15:01:57;29.67;;;19.83;;
20415;SDS011;10367;52.202;5.996;2022-11-14T15:04:27;32.70;;;20.40;;
20415;SDS011;10367;52.202;5.996;2022-11-14T15:06:58;24.87;;;16.87;;
20415;SDS011;10367;52.202;5.996;2022-11-14T15:09:27;30.40;;;17.93;;
20415;SDS011;10367;52.202;5.996;2022-11-14T15:11:56;28.63;;;18.50;;
20415;SDS011;10367;52.202;5.996;2022-11-14T15:14:28;30.77;;;18.97;;
20415;SDS011;10367;52.202;5.996;2022-11-14T15:16:58;28.20;;;17.80;;